Time;durP1;ratioP1;P1;durP2;ratioP2;P2;SDS_P1;SDS_P2;PMS_P1;PMS_P2;Temp;Humidity;BMP_temperature;BMP_pressure;BME280_temperature;BME280_humidity;BME280_pressure;Samples;Min_cycle;Max_cycle;Signal;HPM_P1;HPM_P2
2023/08/19 00:01:43;;;;;;;12.77;3.17;;;;;;;;;;12814627;23;19989;-69
2023/08/19 00:06:44;;;;;;;5.57;2.92;;;;;;;;;;12814631;23;20009;-70
2023/08/19 00:11:44;;;;;;;7.23;3.33;;;;;;;;;;12814672;23;20076;-68
2023/08/19 00:16:44;;;;;;;10.73;3.30;;;;;;;;;;12814463;23;20080;-68
2023/08/19 00:21:45;;;;;;;6.72;3.13;;;;;;;;;;12814401;23;20051;-70
2023/08/19 00:26:45;;;;;;;5.80;2.50;;;;;;;;;;12813996;23;20000;-71
2023/08/19 00:31:45;;;;;;;8.10;3.20;;;;;;;;;;12814182;23;20298;-70
2023/08/19 00:36:45;;;;;;;6.00;3.33;;;;;;;;;;12814212;23;20000;-69
2023/08/19 00:41:48;;;;;;;7.53;2.88;;;;;;;;;;12807464;23;20047;-69
2023/08/19 00:46:48;;;;;;;11.32;3.15;;;;;;;;;;12813865;23;20013;-69
2023/08/19 00:51:48;;;;;;;10.50;3.23;;;;;;;;;;12792176;23;20350;-69
2023/08/19 00:56:48;;;;;;;4.40;3.03;;;;;;;;;;12813880;23;20187;-68
2023/08/19 01:01:49;;;;;;;4.03;2.97;;;;;;;;;;12813884;23;19997;-69
2023/08/19 01:07:04;;;;;;;9.75;3.40;;;;;;;;;;12814069;23;19993;-69
2023/08/19 01:12:31;;;;;;;11.40;3.50;;;;;;;;;;12813602;23;19989;-69
2023/08/19 01:17:32;;;;;;;7.85;3.10;;;;;;;;;;12768632;23;19993;-68
2023/08/19 01:22:52;;;;;;;5.82;3.10;;;;;;;;;;12814625;23;20288;-71
2023/08/19 01:27:52;;;;;;;9.85;3.78;;;;;;;;;;12813970;23;20017;-69
2023/08/19 01:32:52;;;;;;;8.25;3.85;;;;;;;;;;12813651;23;19997;-68
2023/08/19 01:38:19;;;;;;;8.00;3.10;;;;;;;;;;12815077;23;19989;-69
2023/08/19 01:43:19;;;;;;;8.98;3.78;;;;;;;;;;12791021;23;19997;-69
2023/08/19 01:48:20;;;;;;;6.77;3.77;;;;;;;;;;12817063;23;20294;-69
2023/08/19 01:53:20;;;;;;;6.45;3.40;;;;;;;;;;12816985;23;20290;-69
2023/08/19 01:58:20;;;;;;;5.80;3.85;;;;;;;;;;12797276;23;19988;-68
2023/08/19 02:03:20;;;;;;;10.90;4.00;;;;;;;;;;12815169;23;20045;-71
2023/08/19 02:08:21;;;;;;;3.75;3.42;;;;;;;;;;12817942;23;20279;-69
2023/08/19 02:13:21;;;;;;;12.32;3.55;;;;;;;;;;12817119;23;20389;-69
2023/08/19 02:18:22;;;;;;;5.07;3.70;;;;;;;;;;12794141;23;20501;-69
2023/08/19 02:23:22;;;;;;;6.20;3.47;;;;;;;;;;12816415;23;20283;-69
2023/08/19 02:28:22;;;;;;;10.02;3.72;;;;;;;;;;12816675;23;20012;-69
2023/08/19 02:33:22;;;;;;;8.18;3.75;;;;;;;;;;12816313;23;20005;-69
2023/08/19 02:38:23;;;;;;;4.95;3.38;;;;;;;;;;12816060;23;19993;-69
2023/08/19 02:43:23;;;;;;;7.32;3.33;;;;;;;;;;12804162;23;20008;-69
2023/08/19 02:48:23;;;;;;;6.43;3.65;;;;;;;;;;12815695;23;20016;-69
2023/08/19 02:53:23;;;;;;;8.95;4.00;;;;;;;;;;12816206;23;19989;-68
2023/08/19 02:58:24;;;;;;;5.45;3.83;;;;;;;;;;12815773;23;20008;-70
2023/08/19 03:03:27;;;;;;;5.00;3.20;;;;;;;;;;12816052;23;20287;-70
2023/08/19 03:08:27;;;;;;;8.35;3.53;;;;;;;;;;12815351;23;19997;-70
2023/08/19 03:13:27;;;;;;;8.57;4.77;;;;;;;;;;12815843;23;19985;-70
2023/08/19 03:18:28;;;;;;;8.13;4.13;;;;;;;;;;12816089;23;20016;-70
2023/08/19 03:23:28;;;;;;;6.25;4.00;;;;;;;;;;12815198;23;20008;-70
2023/08/19 03:28:28;;;;;;;7.05;4.43;;;;;;;;;;12814939;23;19985;-70
2023/08/19 03:33:29;;;;;;;5.22;3.83;;;;;;;;;;12815357;23;20032;-70
2023/08/19 03:38:29;;;;;;;16.35;4.78;;;;;;;;;;12814935;23;20196;-70
2023/08/19 03:43:29;;;;;;;10.00;4.10;;;;;;;;;;12801184;23;20008;-70
2023/08/19 03:48:30;;;;;;;8.18;4.28;;;;;;;;;;12814633;23;20000;-70
2023/08/19 03:53:30;;;;;;;5.65;3.85;;;;;;;;;;12815086;23;20279;-70
2023/08/19 03:58:30;;;;;;;11.88;4.30;;;;;;;;;;12814835;23;20327;-70
2023/08/19 04:03:30;;;;;;;7.15;3.85;;;;;;;;;;12813735;23;20183;-70
2023/08/19 04:08:31;;;;;;;7.97;4.13;;;;;;;;;;12815181;23;20000;-70
2023/08/19 04:13:31;;;;;;;9.52;4.25;;;;;;;;;;12814670;23;20012;-70
2023/08/19 04:18:32;;;;;;;10.55;4.28;;;;;;;;;;12814292;23;20202;-70
2023/08/19 04:23:32;;;;;;;8.13;4.30;;;;;;;;;;12814896;23;20009;-70
2023/08/19 04:28:33;;;;;;;15.60;5.05;;;;;;;;;;12812894;23;20004;-70
2023/08/19 04:33:34;;;;;;;13.48;4.82;;;;;;;;;;12814107;23;19997;-69
2023/08/19 04:38:34;;;;;;;11.00;4.32;;;;;;;;;;12815557;23;20057;-68
2023/08/19 04:43:34;;;;;;;9.13;4.70;;;;;;;;;;12800034;23;20076;-70
2023/08/19 04:48:35;;;;;;;6.70;4.35;;;;;;;;;;12814316;23;20176;-69
2023/08/19 04:53:35;;;;;;;9.65;4.68;;;;;;;;;;12813876;23;19982;-68
2023/08/19 04:58:35;;;;;;;7.32;4.50;;;;;;;;;;12813711;23;20038;-68
2023/08/19 05:03:35;;;;;;;7.13;4.35;;;;;;;;;;12813437;23;22072;-69
2023/08/19 05:08:36;;;;;;;9.93;5.07;;;;;;;;;;12813517;23;20183;-69
2023/08/19 05:13:36;;;;;;;7.35;3.85;;;;;;;;;;12815567;23;19989;-69
2023/08/19 05:18:36;;;;;;;5.38;3.85;;;;;;;;;;12817508;23;20001;-69
2023/08/19 05:23:36;;;;;;;6.68;3.63;;;;;;;;;;12817170;23;20342;-69
2023/08/19 05:28:37;;;;;;;7.88;3.47;;;;;;;;;;12817786;23;20191;-69
2023/08/19 05:33:37;;;;;;;8.93;3.72;;;;;;;;;;12817169;23;19989;-69
2023/08/19 05:38:37;;;;;;;6.43;4.17;;;;;;;;;;12817612;23;20072;-69
2023/08/19 05:43:37;;;;;;;8.27;4.10;;;;;;;;;;12804149;23;20298;-70
2023/08/19 05:48:38;;;;;;;12.00;4.20;;;;;;;;;;12817309;23;20092;-69
2023/08/19 05:53:38;;;;;;;5.35;3.83;;;;;;;;;;12817254;23;20060;-70
2023/08/19 05:58:38;;;;;;;6.70;2.33;;;;;;;;;;12817148;23;19993;-69
2023/08/19 06:03:38;;;;;;;4.38;3.08;;;;;;;;;;12816739;23;20003;-69
2023/08/19 06:08:39;;;;;;;7.20;3.67;;;;;;;;;;12816868;23;20047;-69
2023/08/19 06:13:39;;;;;;;4.35;2.95;;;;;;;;;;12816626;23;19997;-69
2023/08/19 06:18:39;;;;;;;8.90;2.90;;;;;;;;;;12816275;23;20044;-69
2023/08/19 06:23:40;;;;;;;4.20;2.63;;;;;;;;;;12815582;23;20020;-69
2023/08/19 06:28:40;;;;;;;4.55;2.83;;;;;;;;;;12815818;23;20199;-69
2023/08/19 06:33:41;;;;;;;3.77;2.57;;;;;;;;;;12815838;23;20314;-69
2023/08/19 06:38:42;;;;;;;4.57;2.30;;;;;;;;;;12816384;23;19996;-69
2023/08/19 06:43:42;;;;;;;4.50;2.53;;;;;;;;;;12801247;23;20230;-68
2023/08/19 06:48:43;;;;;;;5.00;2.70;;;;;;;;;;12815850;23;19992;-70
2023/08/19 06:53:43;;;;;;;6.50;3.00;;;;;;;;;;12793719;23;20009;-69
2023/08/19 06:58:44;;;;;;;6.40;2.50;;;;;;;;;;12815401;23;20052;-68
2023/08/19 07:03:45;;;;;;;7.07;2.10;;;;;;;;;;12815472;23;20588;-69
2023/08/19 07:08:45;;;;;;;4.03;1.93;;;;;;;;;;12815719;23;20023;-69
2023/08/19 07:13:46;;;;;;;7.20;2.10;;;;;;;;;;12815108;23;20220;-70
2023/08/19 07:18:47;;;;;;;8.23;1.77;;;;;;;;;;12815430;23;20297;-70
2023/08/19 07:23:47;;;;;;;1.95;1.40;;;;;;;;;;12815379;23;20272;-70
2023/08/19 07:28:49;;;;;;;3.17;1.60;;;;;;;;;;12814982;23;19993;-69
2023/08/19 07:33:50;;;;;;;8.98;1.70;;;;;;;;;;12814756;23;20223;-69
2023/08/19 07:38:50;;;;;;;3.55;1.58;;;;;;;;;;12814825;23;19992;-69
2023/08/19 07:43:50;;;;;;;4.37;2.07;;;;;;;;;;12799381;23;20287;-69
2023/08/19 07:48:51;;;;;;;7.53;1.50;;;;;;;;;;12792673;23;20318;-69
2023/08/19 07:53:51;;;;;;;4.72;1.88;;;;;;;;;;12814594;23;19996;-69
2023/08/19 07:58:51;;;;;;;3.57;1.87;;;;;;;;;;12814432;23;19985;-69
2023/08/19 08:03:51;;;;;;;6.65;1.23;;;;;;;;;;12814150;23;19993;-69
2023/08/19 08:08:53;;;;;;;4.70;1.80;;;;;;;;;;12814484;23;19982;-69
2023/08/19 08:13:53;;;;;;;4.35;1.63;;;;;;;;;;12803632;23;19989;-69
2023/08/19 08:18:53;;;;;;;4.10;1.80;;;;;;;;;;12814341;23;19989;-69
2023/08/19 08:23:54;;;;;;;3.72;1.58;;;;;;;;;;12791926;23;20299;-69
2023/08/19 08:28:54;;;;;;;3.65;1.55;;;;;;;;;;12814453;23;20270;-69
2023/08/19 08:33:54;;;;;;;4.57;1.55;;;;;;;;;;12813978;23;20181;-69
2023/08/19 08:38:55;;;;;;;2.72;1.42;;;;;;;;;;12813831;23;20383;-69
2023/08/19 08:43:57;;;;;;;4.03;1.47;;;;;;;;;;12798496;23;20102;-70
2023/08/19 08:48:58;;;;;;;8.95;1.63;;;;;;;;;;12816146;23;20032;-69
2023/08/19 08:53:59;;;;;;;4.65;1.63;;;;;;;;;;12818105;23;20200;-70
2023/08/19 08:58:59;;;;;;;3.40;1.67;;;;;;;;;;12818329;23;20286;-69
2023/08/19 09:04:03;;;;;;;3.30;1.15;;;;;;;;;;12817645;23;20271;-70
2023/08/19 09:09:04;;;;;;;4.80;2.20;;;;;;;;;;12817808;23;20048;-69
2023/08/19 09:14:11;;;;;;;6.60;2.42;;;;;;;;;;12817778;23;20291;-69
2023/08/19 09:19:12;;;;;;;4.60;1.50;;;;;;;;;;12818144;23;20275;-69
2023/08/19 09:24:16;;;;;;;4.70;1.40;;;;;;;;;;12817381;23;20063;-69
2023/08/19 09:29:19;;;;;;;1.85;1.15;;;;;;;;;;12817734;23;20318;-68
2023/08/19 09:34:19;;;;;;;5.93;1.60;;;;;;;;;;12817202;23;20183;-69
2023/08/19 09:39:20;;;;;;;4.53;1.60;;;;;;;;;;12817126;23;19996;-68
2023/08/19 09:44:20;;;;;;;5.25;1.35;;;;;;;;;;12799745;23;20214;-69
2023/08/19 09:49:21;;;;;;;2.75;1.20;;;;;;;;;;12816755;23;19993;-69
2023/08/19 09:54:22;;;;;;;5.50;1.73;;;;;;;;;;12819833;23;20184;-69
2023/08/19 09:59:23;;;;;;;6.00;1.30;;;;;;;;;;12816108;23;20000;-69
2023/08/19 10:04:23;;;;;;;3.63;1.10;;;;;;;;;;12816303;23;19997;-69
2023/08/19 10:09:26;;;;;;;3.22;1.17;;;;;;;;;;12816375;23;20031;-69
2023/08/19 10:14:30;;;;;;;3.50;1.20;;;;;;;;;;12816864;23;20206;-69
2023/08/19 10:19:52;;;;;;;1.42;1.10;;;;;;;;;;12816289;23;20573;-69
2023/08/19 10:24:53;;;;;;;8.25;1.30;;;;;;;;;;12816169;23;20012;-69
2023/08/19 10:29:57;;;;;;;2.45;1.13;;;;;;;;;;12816502;23;19993;-69
2023/08/19 10:35:08;;;;;;;2.10;1.10;;;;;;;;;;12816384;23;20000;-69
2023/08/19 10:40:12;;;;;;;2.78;1.00;;;;;;;;;;12819151;23;20341;-69
2023/08/19 10:45:14;;;;;;;2.70;1.65;;;;;;;;;;12795282;23;20001;-69
2023/08/19 10:50:16;;;;;;;4.78;1.30;;;;;;;;;;12818778;23;20279;-69
2023/08/19 10:55:17;;;;;;;2.63;1.10;;;;;;;;;;12815794;23;20000;-69
2023/08/19 11:00:38;;;;;;;3.08;1.65;;;;;;;;;;12793895;23;20092;-69
2023/08/19 11:05:47;;;;;;;6.15;2.20;;;;;;;;;;12793897;23;20299;-70
2023/08/19 11:10:48;;;;;;;2.40;1.30;;;;;;;;;;12815416;23;20549;-69
2023/08/19 11:15:49;;;;;;;2.27;1.57;;;;;;;;;;12815320;23;20012;-69
2023/08/19 11:20:50;;;;;;;5.28;1.70;;;;;;;;;;12814852;23;20042;-74
2023/08/19 11:25:50;;;;;;;4.00;1.37;;;;;;;;;;12814671;23;20005;-71
2023/08/19 11:30:50;;;;;;;1.98;1.50;;;;;;;;;;12815124;23;20044;-71
2023/08/19 11:35:51;;;;;;;3.90;1.77;;;;;;;;;;12814742;23;19993;-75
2023/08/19 11:40:52;;;;;;;1.80;1.40;;;;;;;;;;12812447;23;19993;-74
2023/08/19 11:45:52;;;;;;;8.68;2.20;;;;;;;;;;12814083;23;19997;-72
2023/08/19 11:50:53;;;;;;;4.33;2.23;;;;;;;;;;12814732;23;20283;-70
2023/08/19 11:55:57;;;;;;;5.18;1.88;;;;;;;;;;12812601;23;20423;-71
2023/08/19 12:00:59;;;;;;;2.45;1.90;;;;;;;;;;12810777;23;19993;-71
2023/08/19 12:05:59;;;;;;;5.43;2.08;;;;;;;;;;12810737;23;20085;-70
2023/08/19 12:11:00;;;;;;;4.32;2.08;;;;;;;;;;12801746;23;20523;-72
2023/08/19 12:16:00;;;;;;;5.15;1.52;;;;;;;;;;12811551;23;20000;-68
2023/08/19 12:21:03;;;;;;;8.03;2.10;;;;;;;;;;12813646;23;20013;-69
2023/08/19 12:26:04;;;;;;;4.60;1.50;;;;;;;;;;12791853;23;20198;-69
2023/08/19 12:31:04;;;;;;;3.45;2.10;;;;;;;;;;12813260;23;19996;-69
2023/08/19 12:36:04;;;;;;;3.20;1.80;;;;;;;;;;12806485;23;20196;-82
2023/08/19 12:41:05;;;;;;;6.93;1.93;;;;;;;;;;12800194;23;20084;-78
2023/08/19 12:46:05;;;;;;;7.35;2.53;;;;;;;;;;12799029;23;20004;-81
2023/08/19 12:51:05;;;;;;;3.53;2.87;;;;;;;;;;12799168;23;19985;-79
2023/08/19 12:56:06;;;;;;;7.85;2.65;;;;;;;;;;12798949;23;20004;-71
2023/08/19 13:01:06;;;;;;;6.80;2.78;;;;;;;;;;12776251;23;20034;-83
2023/08/19 13:06:07;;;;;;;5.82;3.55;;;;;;;;;;12776520;23;20461;-80
2023/08/19 13:11:07;;;;;;;4.93;2.72;;;;;;;;;;12798847;23;20223;-79
2023/08/19 13:16:07;;;;;;;4.63;2.70;;;;;;;;;;12796799;23;20323;-77
2023/08/19 13:21:07;;;;;;;4.00;3.08;;;;;;;;;;12797075;23;20207;-77
2023/08/19 13:26:08;;;;;;;3.13;2.50;;;;;;;;;;12799206;23;20258;-73
2023/08/19 13:31:08;;;;;;;4.13;2.83;;;;;;;;;;12779109;23;20318;-77
2023/08/19 13:36:09;;;;;;;4.63;2.40;;;;;;;;;;12807669;23;19997;-77
2023/08/19 13:41:09;;;;;;;8.30;2.80;;;;;;;;;;12798522;23;20015;-72
2023/08/19 13:46:09;;;;;;;9.60;2.80;;;;;;;;;;12806493;23;20005;-89
2023/08/19 13:51:10;;;;;;;5.00;2.77;;;;;;;;;;12781311;23;20043;-76
2023/08/19 13:56:10;;;;;;;5.33;2.60;;;;;;;;;;12807545;23;20220;-79
2023/08/19 14:01:10;;;;;;;4.75;2.83;;;;;;;;;;12779629;23;20302;-84
2023/08/19 14:06:11;;;;;;;6.17;3.23;;;;;;;;;;12802652;23;19997;-73
2023/08/19 14:11:12;;;;;;;3.70;2.85;;;;;;;;;;12779569;23;20083;-78
2023/08/19 14:16:12;;;;;;;4.22;2.72;;;;;;;;;;12777470;23;19997;-71
2023/08/19 14:21:12;;;;;;;5.17;3.00;;;;;;;;;;12799284;23;20040;-69
2023/08/19 14:26:13;;;;;;;7.13;2.70;;;;;;;;;;12798235;23;20310;-69
2023/08/19 14:31:13;;;;;;;3.30;2.95;;;;;;;;;;12799473;23;19993;-70
2023/08/19 14:36:13;;;;;;;4.43;2.85;;;;;;;;;;12798065;23;20055;-70
2023/08/19 14:41:14;;;;;;;6.32;2.80;;;;;;;;;;12794591;23;20322;-72
2023/08/19 14:46:15;;;;;;;5.07;2.85;;;;;;;;;;12798071;23;20309;-71
2023/08/19 14:51:15;;;;;;;4.60;2.80;;;;;;;;;;12807090;23;20179;-85
2023/08/19 14:56:15;;;;;;;8.93;4.80;;;;;;;;;;12803757;23;20690;-82
2023/08/19 15:01:17;;;;;;;12.90;5.77;;;;;;;;;;12801244;23;20001;-75
2023/08/19 15:06:17;;;;;;;8.20;5.68;;;;;;;;;;12797541;23;20195;-75
2023/08/19 15:11:18;;;;;;;6.83;3.50;;;;;;;;;;12800450;23;19993;-74
2023/08/19 15:16:18;;;;;;;4.38;2.50;;;;;;;;;;12798394;23;20314;-74
2023/08/19 15:21:18;;;;;;;6.63;3.53;;;;;;;;;;12797587;23;20012;-74
2023/08/19 15:26:18;;;;;;;6.32;2.55;;;;;;;;;;12798020;23;20001;-75
2023/08/19 15:31:22;;;;;;;7.53;3.15;;;;;;;;;;12803329;23;20143;-71
2023/08/19 15:36:22;;;;;;;10.50;2.78;;;;;;;;;;12803251;23;20277;-73
2023/08/19 15:41:22;;;;;;;7.30;3.05;;;;;;;;;;12798697;23;20144;-75
2023/08/19 15:46:22;;;;;;;8.30;2.80;;;;;;;;;;12804184;23;20016;-75
2023/08/19 15:51:23;;;;;;;9.55;3.08;;;;;;;;;;12802856;23;19997;-72
2023/08/19 15:56:23;;;;;;;6.22;3.03;;;;;;;;;;12803521;23;20298;-80
2023/08/19 16:01:25;;;;;;;8.27;2.70;;;;;;;;;;12804764;23;20027;-81
2023/08/19 16:06:25;;;;;;;9.00;3.47;;;;;;;;;;12803221;23;20009;-73
2023/08/19 16:11:25;;;;;;;4.78;2.60;;;;;;;;;;12805687;23;20016;-84
2023/08/19 16:16:26;;;;;;;3.42;3.00;;;;;;;;;;12801471;23;20000;-75
2023/08/19 16:22:02;;;;;;;7.20;4.45;;;;;;;;;;12798472;23;20051;-75
2023/08/19 16:27:02;;;;;;;9.40;3.42;;;;;;;;;;12808350;23;20053;-75
2023/08/19 16:32:03;;;;;;;13.60;3.80;;;;;;;;;;12802468;23;20016;-74
2023/08/19 16:37:05;;;;;;;7.97;3.03;;;;;;;;;;12802755;23;20001;-84
2023/08/19 16:42:05;;;;;;;4.75;3.00;;;;;;;;;;12794456;23;20407;-73
2023/08/19 16:47:06;;;;;;;10.33;4.17;;;;;;;;;;12802301;23;20005;-70
2023/08/19 16:52:06;;;;;;;7.03;4.05;;;;;;;;;;12801254;23;20004;-72
2023/08/19 16:57:07;;;;;;;7.85;4.05;;;;;;;;;;12799950;23;20001;-68
2023/08/19 17:02:07;;;;;;;8.13;4.17;;;;;;;;;;12799656;23;20001;-74
2023/08/19 17:07:07;;;;;;;9.20;4.23;;;;;;;;;;12778072;23;20337;-72
2023/08/19 17:12:08;;;;;;;9.63;4.88;;;;;;;;;;12806350;23;20030;-69
2023/08/19 17:17:09;;;;;;;7.57;4.00;;;;;;;;;;12806557;23;20080;-70
2023/08/19 17:22:09;;;;;;;5.83;3.10;;;;;;;;;;12784937;23;20445;-70
2023/08/19 17:27:10;;;;;;;6.18;3.03;;;;;;;;;;12806501;23;20005;-71
2023/08/19 17:32:11;;;;;;;10.55;3.25;;;;;;;;;;12806148;23;20055;-70
2023/08/19 17:37:11;;;;;;;9.93;4.10;;;;;;;;;;12807019;23;20049;-78
2023/08/19 17:42:11;;;;;;;8.07;3.30;;;;;;;;;;12782833;23;20013;-70
2023/08/19 17:47:11;;;;;;;6.93;3.78;;;;;;;;;;12805985;23;20005;-68
2023/08/19 17:52:12;;;;;;;6.93;3.78;;;;;;;;;;12806389;23;20039;-66
2023/08/19 17:57:13;;;;;;;9.10;3.67;;;;;;;;;;12804518;23;20001;-72
2023/08/19 18:02:13;;;;;;;9.48;4.28;;;;;;;;;;12804419;23;20004;-67
2023/08/19 18:07:14;;;;;;;11.85;5.10;;;;;;;;;;12806046;23;20000;-69
2023/08/19 18:12:14;;;;;;;7.40;4.32;;;;;;;;;;12806093;23;19997;-69
2023/08/19 18:17:16;;;;;;;13.05;4.90;;;;;;;;;;12808560;23;20077;-83
2023/08/19 18:22:16;;;;;;;8.13;4.53;;;;;;;;;;12809038;23;20308;-84
2023/08/19 18:27:16;;;;;;;17.47;5.23;;;;;;;;;;12814222;23;20055;-83
2023/08/19 18:32:17;;;;;;;11.13;4.88;;;;;;;;;;12790744;23;20330;-73
2023/08/19 18:37:17;;;;;;;10.82;5.53;;;;;;;;;;12803174;23;20001;-74
2023/08/19 18:42:17;;;;;;;9.15;5.03;;;;;;;;;;12795560;23;20438;-79
2023/08/19 18:47:17;;;;;;;9.77;4.63;;;;;;;;;;12790429;23;20005;-71
2023/08/19 18:52:18;;;;;;;7.85;4.20;;;;;;;;;;12811771;23;20167;-72
2023/08/19 18:57:18;;;;;;;4.82;3.88;;;;;;;;;;12811720;23;19993;-72
2023/08/19 19:02:18;;;;;;;8.32;4.55;;;;;;;;;;12811757;23;20063;-72
2023/08/19 19:07:18;;;;;;;8.32;3.65;;;;;;;;;;12812182;23;20005;-72
2023/08/19 19:12:19;;;;;;;6.35;4.03;;;;;;;;;;12814633;23;20313;-72
2023/08/19 19:17:19;;;;;;;6.70;3.97;;;;;;;;;;12792347;23;20009;-72
2023/08/19 19:22:20;;;;;;;7.93;4.10;;;;;;;;;;12815109;23;20036;-72
2023/08/19 19:27:20;;;;;;;6.90;3.65;;;;;;;;;;12814664;23;20071;-72
2023/08/19 19:32:20;;;;;;;7.38;3.85;;;;;;;;;;12814875;23;20069;-72
2023/08/19 19:37:20;;;;;;;6.60;3.63;;;;;;;;;;12814847;23;19993;-72
2023/08/19 19:42:21;;;;;;;10.70;4.07;;;;;;;;;;12806496;23;20202;-72
2023/08/19 19:47:21;;;;;;;6.95;4.53;;;;;;;;;;12792396;23;20313;-72
2023/08/19 19:52:21;;;;;;;12.80;4.55;;;;;;;;;;12814677;23;20040;-72
2023/08/19 19:57:22;;;;;;;12.03;3.97;;;;;;;;;;12814787;23;20001;-72
2023/08/19 20:02:22;;;;;;;5.80;3.50;;;;;;;;;;12791884;23;20017;-72
2023/08/19 20:07:22;;;;;;;5.10;4.07;;;;;;;;;;12814888;23;20298;-72
2023/08/19 20:12:22;;;;;;;6.40;3.70;;;;;;;;;;12814149;23;19989;-72
2023/08/19 20:17:23;;;;;;;7.93;4.33;;;;;;;;;;12814292;23;20187;-72
2023/08/19 20:22:23;;;;;;;6.50;3.90;;;;;;;;;;12814070;23;20283;-70
2023/08/19 20:27:23;;;;;;;4.53;3.60;;;;;;;;;;12813777;23;20243;-73
2023/08/19 20:32:24;;;;;;;6.10;4.13;;;;;;;;;;12791669;23;20000;-71
2023/08/19 20:37:24;;;;;;;6.90;4.33;;;;;;;;;;12813919;23;19993;-71
2023/08/19 20:42:24;;;;;;;8.73;3.67;;;;;;;;;;12804427;23;20036;-72
2023/08/19 20:47:24;;;;;;;10.15;5.25;;;;;;;;;;12813814;23;20012;-71
2023/08/19 20:52:25;;;;;;;4.57;3.67;;;;;;;;;;12813780;23;20020;-71
2023/08/19 20:57:25;;;;;;;6.38;3.95;;;;;;;;;;12813819;23;20254;-71
2023/08/19 21:02:25;;;;;;;10.43;4.35;;;;;;;;;;12813485;23;20001;-71
2023/08/19 21:07:25;;;;;;;5.03;3.77;;;;;;;;;;12813590;23;20192;-71
2023/08/19 21:12:26;;;;;;;6.00;4.50;;;;;;;;;;12813440;23;19992;-71
2023/08/19 21:17:26;;;;;;;5.68;4.22;;;;;;;;;;12813405;23;19993;-71
2023/08/19 21:22:26;;;;;;;6.18;3.90;;;;;;;;;;12813439;23;20021;-70
2023/08/19 21:27:27;;;;;;;8.47;4.30;;;;;;;;;;12813526;23;20064;-70
2023/08/19 21:32:28;;;;;;;7.95;4.53;;;;;;;;;;12812869;23;19992;-71
2023/08/19 21:37:28;;;;;;;5.25;3.67;;;;;;;;;;12813493;23;20215;-72
2023/08/19 21:42:28;;;;;;;6.10;3.45;;;;;;;;;;12803970;23;19997;-71
2023/08/19 21:47:28;;;;;;;8.90;4.05;;;;;;;;;;12813398;23;20013;-71
2023/08/19 21:52:29;;;;;;;6.32;3.95;;;;;;;;;;12813097;23;19989;-71
2023/08/19 21:57:29;;;;;;;7.40;4.28;;;;;;;;;;12815994;23;20005;-71
2023/08/19 22:02:30;;;;;;;7.97;4.15;;;;;;;;;;12815888;23;20283;-71
2023/08/19 22:07:30;;;;;;;6.40;3.65;;;;;;;;;;12817175;23;19993;-73
2023/08/19 22:12:30;;;;;;;5.00;3.93;;;;;;;;;;12816964;23;20042;-73
2023/08/19 22:17:31;;;;;;;7.90;4.18;;;;;;;;;;12816814;23;19988;-72
2023/08/19 22:22:31;;;;;;;7.37;4.60;;;;;;;;;;12817016;23;20047;-71
2023/08/19 22:27:31;;;;;;;9.82;4.10;;;;;;;;;;12816468;23;20005;-71
2023/08/19 22:32:32;;;;;;;12.30;6.05;;;;;;;;;;12816202;23;20432;-71
2023/08/19 22:37:33;;;;;;;11.10;4.80;;;;;;;;;;12816702;23;20287;-71
2023/08/19 22:42:33;;;;;;;9.45;5.85;;;;;;;;;;12807064;23;20206;-71
2023/08/19 22:47:34;;;;;;;6.83;4.67;;;;;;;;;;12816201;23;20008;-71
2023/08/19 22:52:35;;;;;;;8.07;4.83;;;;;;;;;;12816630;23;20430;-71
2023/08/19 22:57:35;;;;;;;7.30;4.75;;;;;;;;;;12816388;23;20187;-71
2023/08/19 23:02:35;;;;;;;10.35;5.80;;;;;;;;;;12816077;23;20008;-71
2023/08/19 23:07:35;;;;;;;8.93;5.35;;;;;;;;;;12816018;23;20215;-70
2023/08/19 23:12:36;;;;;;;9.07;5.43;;;;;;;;;;12815766;23;19989;-70
2023/08/19 23:17:36;;;;;;;10.50;5.93;;;;;;;;;;12815137;23;20183;-70
2023/08/19 23:22:36;;;;;;;8.27;6.03;;;;;;;;;;12814941;23;20009;-70
2023/08/19 23:27:37;;;;;;;8.23;5.60;;;;;;;;;;12813982;23;20008;-70
2023/08/19 23:32:37;;;;;;;10.33;5.83;;;;;;;;;;12792690;23;20074;-70
2023/08/19 23:37:37;;;;;;;6.90;5.28;;;;;;;;;;12813161;23;20299;-70
2023/08/19 23:42:37;;;;;;;11.95;6.15;;;;;;;;;;12801974;23;20339;-70
2023/08/19 23:47:38;;;;;;;13.60;5.80;;;;;;;;;;12811663;23;20001;-70
2023/08/19 23:52:41;;;;;;;11.40;6.55;;;;;;;;;;12812739;23;20070;-70
2023/08/19 23:57:44;;;;;;;9.30;5.50;;;;;;;;;;12793602;23;20021;-70
